createdAt,value
2018-03-11T00:00:25.991Z,14.77
2018-03-11T00:02:54.058Z,14.90
2018-03-11T00:05:23.335Z,14.80
2018-03-11T00:07:51.686Z,15.13
2018-03-11T00:10:20.019Z,13.97
2018-03-11T00:12:48.362Z,13.85
2018-03-11T00:15:16.694Z,14.70
2018-03-11T00:17:45.044Z,15.30
2018-03-11T00:20:13.798Z,14.90
2018-03-11T00:22:42.169Z,13.83
2018-03-11T00:25:10.494Z,13.03
2018-03-11T00:27:38.853Z,13.45
2018-03-11T00:30:07.174Z,13.85
2018-03-11T00:32:35.526Z,14.13
2018-03-11T00:35:03.859Z,14.77
2018-03-11T00:37:32.202Z,13.00
2018-03-11T00:40:00.526Z,12.70
2018-03-11T00:42:28.849Z,12.50
2018-03-11T00:44:57.194Z,12.47
2018-03-11T00:47:25.518Z,12.63
2018-03-11T00:49:53.865Z,12.00
2018-03-11T00:52:22.191Z,12.73
2018-03-11T00:54:50.534Z,12.53
2018-03-11T00:57:18.858Z,13.00
2018-03-11T00:59:47.202Z,12.63
2018-03-11T01:02:15.521Z,11.90
2018-03-11T01:04:43.871Z,12.37
2018-03-11T01:07:12.194Z,13.60
2018-03-11T01:09:40.542Z,13.60
2018-03-11T01:12:08.870Z,15.30
2018-03-11T01:14:37.219Z,13.00
2018-03-11T01:17:05.545Z,13.60
2018-03-11T01:19:33.890Z,13.97
2018-03-11T01:22:02.214Z,13.70
2018-03-11T01:24:30.558Z,14.13
2018-03-11T01:26:58.881Z,13.60
2018-03-11T01:29:27.226Z,15.80
2018-03-11T01:31:55.550Z,15.00
2018-03-11T01:34:23.894Z,15.53
2018-03-11T01:36:52.217Z,16.90
2018-03-11T01:39:20.562Z,15.33
2018-03-11T01:41:48.895Z,15.73
2018-03-11T01:44:17.240Z,15.83
2018-03-11T01:46:45.561Z,15.47
2018-03-11T01:49:13.906Z,15.50
2018-03-11T01:51:42.230Z,15.57
2018-03-11T01:54:10.579Z,16.10
2018-03-11T01:56:38.923Z,15.65
2018-03-11T01:59:07.266Z,19.12
2018-03-11T02:01:35.603Z,16.93
2018-03-11T02:04:03.957Z,17.53
2018-03-11T02:06:32.286Z,16.58
2018-03-11T02:09:00.650Z,15.47
2018-03-11T02:11:28.979Z,16.30
2018-03-11T02:13:57.326Z,16.67
2018-03-11T02:16:26.551Z,16.00
2018-03-11T02:18:54.898Z,16.30
2018-03-11T02:21:23.230Z,16.77
2018-03-11T02:23:51.586Z,16.37
2018-03-11T02:26:19.915Z,15.97
2018-03-11T02:28:48.270Z,15.77
2018-03-11T02:31:16.594Z,16.10
2018-03-11T02:33:44.947Z,17.67
2018-03-11T02:36:13.306Z,16.77
2018-03-11T02:38:41.645Z,15.37
2018-03-11T02:41:09.973Z,16.83
2018-03-11T02:43:38.302Z,15.82
2018-03-11T02:46:07.622Z,15.50
2018-03-11T02:48:35.954Z,14.95
2018-03-11T02:51:04.306Z,16.47
2018-03-11T02:53:32.632Z,14.80
2018-03-11T02:56:00.989Z,14.80
2018-03-11T02:58:29.311Z,15.53
2018-03-11T03:00:57.658Z,16.13
2018-03-11T03:03:25.990Z,13.20
2018-03-11T03:05:54.341Z,13.77
2018-03-11T03:08:22.666Z,13.93
2018-03-11T03:10:51.014Z,12.63
2018-03-11T03:13:19.342Z,14.63
2018-03-11T03:15:47.685Z,13.03
2018-03-11T03:18:16.018Z,12.82
2018-03-11T03:20:44.375Z,13.20
2018-03-11T03:23:12.702Z,11.25
2018-03-11T03:25:41.049Z,13.17
2018-03-11T03:28:09.377Z,12.35
2018-03-11T03:30:37.731Z,12.67
2018-03-11T03:33:06.449Z,12.98
2018-03-11T03:35:34.798Z,11.97
2018-03-11T03:38:03.130Z,12.57
2018-03-11T03:40:31.481Z,12.65
2018-03-11T03:42:59.805Z,13.03
2018-03-11T03:45:28.153Z,13.10
2018-03-11T03:47:56.484Z,13.43
2018-03-11T03:50:24.829Z,12.87
2018-03-11T03:52:53.274Z,12.18
2018-03-11T03:55:21.626Z,12.83
2018-03-11T03:57:49.954Z,11.20
2018-03-11T04:00:18.310Z,13.00
2018-03-11T04:02:46.633Z,11.80
2018-03-11T04:05:14.985Z,12.27
2018-03-11T04:07:43.313Z,12.60
2018-03-11T04:10:11.666Z,13.80
2018-03-11T04:12:40.806Z,13.03
2018-03-11T04:15:09.145Z,12.67
2018-03-11T04:17:37.505Z,12.63
2018-03-11T04:20:05.836Z,12.73
2018-03-11T04:22:34.170Z,12.43
2018-03-11T04:25:02.550Z,11.55
2018-03-11T04:27:30.858Z,12.83
2018-03-11T04:29:59.209Z,12.07
2018-03-11T04:32:27.646Z,11.27
2018-03-11T04:34:56.001Z,12.37
2018-03-11T04:37:24.334Z,11.80
2018-03-11T04:39:52.666Z,12.47
2018-03-11T04:42:21.008Z,10.70
2018-03-11T04:44:49.339Z,11.77
2018-03-11T04:47:17.691Z,12.70
2018-03-11T04:49:46.026Z,12.93
2018-03-11T04:52:15.271Z,12.15
2018-03-11T04:54:43.603Z,13.43
2018-03-11T04:57:11.949Z,11.93
2018-03-11T04:59:40.277Z,12.40
2018-03-11T05:02:08.626Z,13.07
2018-03-11T05:04:36.955Z,11.63
2018-03-11T05:07:05.320Z,12.93
2018-03-11T05:09:33.651Z,12.07
2018-03-11T05:12:02.129Z,13.32
2018-03-11T05:14:30.464Z,12.10
2018-03-11T05:16:58.808Z,11.20
2018-03-11T05:19:27.141Z,10.80
2018-03-11T05:21:55.490Z,11.25
2018-03-11T05:24:23.818Z,11.47
2018-03-11T05:26:52.166Z,12.95
2018-03-11T05:29:20.494Z,11.43
2018-03-11T05:31:48.851Z,13.10
2018-03-11T05:34:17.226Z,12.70
2018-03-11T05:36:45.578Z,13.30
2018-03-11T05:39:13.914Z,11.60
2018-03-11T05:41:42.362Z,11.70
2018-03-11T05:44:10.706Z,12.45
2018-03-11T05:46:39.067Z,12.20
2018-03-11T05:49:07.402Z,11.70
2018-03-11T05:51:35.757Z,13.68
2018-03-11T05:54:04.096Z,14.32
2018-03-11T05:56:32.446Z,15.77
2018-03-11T05:59:00.790Z,14.02
2018-03-11T06:01:29.137Z,13.57
2018-03-11T06:03:57.465Z,13.60
2018-03-11T06:06:25.925Z,13.77
2018-03-11T06:08:54.258Z,13.30
2018-03-11T06:11:22.609Z,12.80
2018-03-11T06:13:50.937Z,13.82
2018-03-11T06:16:19.293Z,13.25
2018-03-11T06:18:47.713Z,13.00
2018-03-11T06:21:16.061Z,14.70
2018-03-11T06:23:44.406Z,13.60
2018-03-11T06:26:12.749Z,13.50
2018-03-11T06:28:41.081Z,14.02
2018-03-11T06:31:09.433Z,13.75
2018-03-11T06:33:37.765Z,12.23
2018-03-11T06:36:06.125Z,13.10
2018-03-11T06:38:34.456Z,13.52
2018-03-11T06:41:02.785Z,13.88
2018-03-11T06:43:31.137Z,15.02
2018-03-11T06:45:59.469Z,16.30
2018-03-11T06:48:27.821Z,14.82
2018-03-11T06:50:56.158Z,15.73
2018-03-11T06:53:24.511Z,16.75
2018-03-11T06:55:52.910Z,16.55
2018-03-11T06:58:21.246Z,17.05
2018-03-11T07:00:49.578Z,16.30
2018-03-11T07:03:17.935Z,18.23
2018-03-11T07:05:46.266Z,18.45
2018-03-11T07:08:14.621Z,15.43
2018-03-11T07:10:42.953Z,15.68
2018-03-11T07:13:11.301Z,15.32
2018-03-11T07:15:39.643Z,17.42
2018-03-11T07:18:07.998Z,17.00
2018-03-11T07:20:36.332Z,17.10
2018-03-11T07:23:04.686Z,19.05
2018-03-11T07:25:33.018Z,17.23
2018-03-11T07:28:01.372Z,16.20
2018-03-11T07:30:29.702Z,16.30
2018-03-11T07:32:58.053Z,15.25
2018-03-11T07:35:26.390Z,15.55
2018-03-11T07:37:54.730Z,16.20
2018-03-11T07:40:23.054Z,15.23
2018-03-11T07:42:51.407Z,15.60
2018-03-11T07:45:19.735Z,15.17
2018-03-11T07:47:48.078Z,15.90
2018-03-11T07:50:16.402Z,15.07
2018-03-11T07:52:44.750Z,14.47
2018-03-11T07:55:13.070Z,14.57
2018-03-11T07:57:41.410Z,12.87
2018-03-11T08:00:09.733Z,12.90
2018-03-11T08:02:38.078Z,12.10
2018-03-11T08:05:06.403Z,13.90
2018-03-11T08:07:34.750Z,13.10
2018-03-11T08:10:03.065Z,13.90
2018-03-11T08:12:31.406Z,18.10
2018-03-11T08:14:59.726Z,18.77
2018-03-11T08:17:28.070Z,18.17
2018-03-11T08:19:56.398Z,16.67
2018-03-11T08:22:24.742Z,17.50
2018-03-11T08:24:53.066Z,15.90
2018-03-11T08:27:21.409Z,11.53
2018-03-11T08:29:49.733Z,10.03
2018-03-11T08:32:18.069Z,8.07
2018-03-11T08:34:46.381Z,9.40
2018-03-11T08:37:14.746Z,7.97
2018-03-11T08:39:43.066Z,10.23
2018-03-11T08:42:11.390Z,10.10
2018-03-11T08:44:39.734Z,10.10
2018-03-11T08:47:08.063Z,10.20
2018-03-11T08:49:36.402Z,10.30
2018-03-11T08:52:04.722Z,10.97
2018-03-11T08:54:33.066Z,11.67
2018-03-11T08:57:01.385Z,12.07
2018-03-11T08:59:29.766Z,11.20
2018-03-11T09:01:58.086Z,9.63
2018-03-11T09:04:26.421Z,10.53
2018-03-11T09:06:54.751Z,10.23
2018-03-11T09:09:23.089Z,10.20
2018-03-11T09:11:51.410Z,10.80
2018-03-11T09:14:19.754Z,10.37
2018-03-11T09:16:48.078Z,11.10
2018-03-11T09:19:16.436Z,10.63
2018-03-11T09:21:44.753Z,11.80
2018-03-11T09:24:13.098Z,11.67
2018-03-11T09:26:41.509Z,11.30
2018-03-11T09:29:09.890Z,11.60
2018-03-11T09:31:38.215Z,11.10
2018-03-11T09:34:06.646Z,10.97
2018-03-11T09:36:34.961Z,10.50
2018-03-11T09:39:03.289Z,10.50
2018-03-11T09:41:31.635Z,10.13
2018-03-11T09:43:59.949Z,9.70
2018-03-11T09:46:28.310Z,10.73
2018-03-11T09:48:56.617Z,10.73
2018-03-11T09:51:24.962Z,10.60
2018-03-11T09:53:53.357Z,10.10
2018-03-11T09:56:21.717Z,11.70
2018-03-11T09:58:50.030Z,9.90
2018-03-11T10:01:18.378Z,11.33
2018-03-11T10:03:46.711Z,10.00
2018-03-11T10:06:15.045Z,9.50
2018-03-11T10:08:43.368Z,9.80
2018-03-11T10:11:11.742Z,10.70
2018-03-11T10:13:40.057Z,9.33
2018-03-11T10:16:09.330Z,9.75
2018-03-11T10:18:37.674Z,9.23
2018-03-11T10:21:05.994Z,10.23
2018-03-11T10:23:34.341Z,10.17
2018-03-11T10:26:03.673Z,9.40
2018-03-11T10:28:33.082Z,9.15
2018-03-11T10:31:01.410Z,10.27
2018-03-11T10:33:29.760Z,7.97
2018-03-11T10:35:58.093Z,9.60
2018-03-11T10:38:27.091Z,10.07
2018-03-11T10:40:55.421Z,9.23
2018-03-11T10:43:23.766Z,9.20
2018-03-11T10:45:52.118Z,8.40
2018-03-11T10:48:20.465Z,9.00
2018-03-11T10:50:49.125Z,9.80
2018-03-11T10:53:17.420Z,10.27
2018-03-11T10:55:45.746Z,10.63
2018-03-11T10:58:14.093Z,9.43
2018-03-11T11:00:43.342Z,9.67
2018-03-11T11:03:17.237Z,9.95
2018-03-11T11:05:45.575Z,11.27
2018-03-11T11:08:13.929Z,10.00
2018-03-11T11:10:42.251Z,8.87
2018-03-11T11:13:10.605Z,9.88
2018-03-11T11:15:38.939Z,8.43
2018-03-11T11:18:07.302Z,8.57
2018-03-11T11:20:35.630Z,10.05
2018-03-11T11:23:03.978Z,8.40
2018-03-11T11:25:32.594Z,8.45
2018-03-11T11:28:00.906Z,10.13
2018-03-11T11:30:29.230Z,9.47
2018-03-11T11:32:57.574Z,9.50
2018-03-11T11:35:25.906Z,9.83
2018-03-11T11:37:54.258Z,8.38
2018-03-11T11:40:22.850Z,10.35
2018-03-11T11:42:51.177Z,10.77
2018-03-11T11:45:19.502Z,10.23
2018-03-11T11:47:47.849Z,9.80
2018-03-11T11:50:16.165Z,9.23
2018-03-11T11:52:44.490Z,9.83
2018-03-11T11:55:12.851Z,10.38
2018-03-11T11:57:41.165Z,9.60
2018-03-11T12:00:10.482Z,9.35
2018-03-11T12:02:38.846Z,8.70
2018-03-11T12:05:07.257Z,9.60
2018-03-11T12:07:35.673Z,9.10
2018-03-11T12:10:04.011Z,9.47
2018-03-11T12:12:32.334Z,8.65
2018-03-11T12:15:00.682Z,8.15
2018-03-11T12:17:28.998Z,9.40
2018-03-11T12:19:58.302Z,9.40
2018-03-11T12:22:26.626Z,9.83
2018-03-11T12:24:54.963Z,9.60
2018-03-11T12:27:23.300Z,8.70
2018-03-11T12:29:51.645Z,8.60
2018-03-11T12:32:20.001Z,8.17
2018-03-11T12:34:48.338Z,9.20
2018-03-11T12:37:16.681Z,8.93
2018-03-11T12:39:46.156Z,10.23
2018-03-11T12:42:14.497Z,10.00
2018-03-11T12:44:42.855Z,9.10
2018-03-11T12:47:11.223Z,9.18
2018-03-11T12:49:39.589Z,9.93
2018-03-11T12:52:07.898Z,8.73
2018-03-11T12:54:36.241Z,9.13
2018-03-11T12:57:04.565Z,9.33
2018-03-11T12:59:32.910Z,8.47
2018-03-11T13:02:01.244Z,9.37
2018-03-11T13:04:29.587Z,9.03
2018-03-11T13:06:57.923Z,8.70
2018-03-11T13:09:26.265Z,9.15
2018-03-11T13:11:54.594Z,8.93
2018-03-11T13:14:23.062Z,8.10
2018-03-11T13:16:51.386Z,8.10
2018-03-11T13:19:19.746Z,8.13
2018-03-11T13:21:48.089Z,8.00
2018-03-11T13:24:16.409Z,7.97
2018-03-11T13:26:44.746Z,8.02
2018-03-11T13:29:13.090Z,8.23
2018-03-11T13:31:41.414Z,8.65
2018-03-11T13:34:21.745Z,8.30
2018-03-11T13:36:50.135Z,7.03
2018-03-11T13:39:30.380Z,7.65
2018-03-11T13:41:58.717Z,8.05
2018-03-11T13:44:27.063Z,7.40
2018-03-11T13:47:04.838Z,7.23
2018-03-11T13:49:33.178Z,7.30
2018-03-11T13:52:13.258Z,6.90
2018-03-11T13:54:41.605Z,7.70
2018-03-11T14:00:13.141Z,7.10
2018-03-11T14:02:41.577Z,6.60
2018-03-11T14:05:09.946Z,6.53
2018-03-11T14:07:38.436Z,6.47
2018-03-11T14:10:07.090Z,6.20
2018-03-11T14:12:41.306Z,5.40
2018-03-11T14:15:11.507Z,5.68
2018-03-11T14:17:39.844Z,6.73
2018-03-11T14:20:08.911Z,5.60
2018-03-11T14:22:37.226Z,5.97
2018-03-11T14:25:05.562Z,4.93
2018-03-11T14:27:33.928Z,4.65
2018-03-11T14:30:02.259Z,5.30
2018-03-11T14:32:30.581Z,4.65
2018-03-11T14:34:58.998Z,5.60
2018-03-11T14:37:27.318Z,4.80
2018-03-11T14:39:55.662Z,5.50
2018-03-11T14:42:24.349Z,5.33
2018-03-11T14:44:53.172Z,5.40
2018-03-11T14:47:21.526Z,5.10
2018-03-11T14:49:49.866Z,6.35
2018-03-11T14:52:18.190Z,5.63
2018-03-11T14:54:46.522Z,6.03
2018-03-11T14:57:14.833Z,5.30
2018-03-11T14:59:43.278Z,5.50
2018-03-11T15:02:11.604Z,5.27
2018-03-11T15:04:39.939Z,4.80
2018-03-11T15:07:08.262Z,4.75
2018-03-11T15:09:36.568Z,5.70
2018-03-11T15:12:04.910Z,5.47
2018-03-11T15:14:33.473Z,5.00
2018-03-11T15:17:02.202Z,5.60
2018-03-11T15:19:30.983Z,4.97
2018-03-11T15:21:59.562Z,5.87
2018-03-11T15:24:28.310Z,5.07
2018-03-11T15:26:57.037Z,5.77
2018-03-11T15:29:25.724Z,5.12
2018-03-11T15:31:54.575Z,5.10
2018-03-11T15:34:23.155Z,5.07
2018-03-11T15:36:51.562Z,4.60
2018-03-11T15:39:19.876Z,4.00
2018-03-11T15:41:48.214Z,4.78
2018-03-11T15:44:16.566Z,4.87
2018-03-11T15:46:44.909Z,5.18
2018-03-11T15:49:13.253Z,4.83
2018-03-11T15:51:41.598Z,5.40
2018-03-11T15:54:09.927Z,5.40
2018-03-11T15:56:39.215Z,5.50
2018-03-11T15:59:07.529Z,6.57
2018-03-11T16:01:35.886Z,5.78
2018-03-11T16:04:04.214Z,6.60
2018-03-11T16:06:33.454Z,5.57
2018-03-11T16:09:01.774Z,6.97
2018-03-11T16:11:30.127Z,5.37
2018-03-11T16:13:58.485Z,7.18
2018-03-11T16:16:26.824Z,9.70
2018-03-11T16:18:55.170Z,8.33
2018-03-11T16:21:23.543Z,6.60
2018-03-11T16:23:51.850Z,5.77
2018-03-11T16:26:21.275Z,7.43
2018-03-11T16:28:49.618Z,7.00
2018-03-11T16:31:17.967Z,6.87
2018-03-11T16:33:46.282Z,6.10
2018-03-11T16:36:15.599Z,6.10
2018-03-11T16:38:43.918Z,6.63
2018-03-11T16:41:12.288Z,8.48
2018-03-11T16:43:40.598Z,6.28
2018-03-11T16:46:09.921Z,7.37
2018-03-11T16:48:38.259Z,6.80
2018-03-11T16:51:06.613Z,6.50
2018-03-11T16:53:34.932Z,6.60
2018-03-11T16:56:04.778Z,6.94
2018-03-11T16:58:33.518Z,6.10
2018-03-11T17:01:01.854Z,7.27
2018-03-11T17:03:30.178Z,6.53
2018-03-11T17:05:58.530Z,7.12
2018-03-11T17:08:26.850Z,7.55
2018-03-11T17:10:55.197Z,7.57
2018-03-11T17:13:23.518Z,7.47
2018-03-11T17:15:51.873Z,7.73
2018-03-11T17:18:20.214Z,6.70
2018-03-11T17:20:48.550Z,7.10
2018-03-11T17:23:16.883Z,7.33
2018-03-11T17:25:45.274Z,8.70
2018-03-11T17:28:13.602Z,7.15
2018-03-11T17:30:41.929Z,8.20
2018-03-11T17:33:10.265Z,7.30
2018-03-11T17:35:38.585Z,7.00
2018-03-11T17:38:06.930Z,7.40
2018-03-11T17:40:35.257Z,7.50
2018-03-11T17:43:03.611Z,7.63
2018-03-11T17:45:31.938Z,7.43
2018-03-11T17:48:00.289Z,6.10
2018-03-11T17:50:28.613Z,5.72
2018-03-11T17:52:56.943Z,5.72
2018-03-11T17:55:25.706Z,5.70
2018-03-11T17:57:54.038Z,4.70
2018-03-11T18:00:22.358Z,5.47
2018-03-11T18:02:50.697Z,4.22
2018-03-11T18:05:19.010Z,5.10
2018-03-11T18:07:47.349Z,4.25
2018-03-11T18:10:15.665Z,4.80
2018-03-11T18:12:44.009Z,4.63
2018-03-11T18:15:12.385Z,5.40
2018-03-11T18:17:40.726Z,4.70
2018-03-11T18:20:09.038Z,4.23
2018-03-11T18:22:37.378Z,5.60
2018-03-11T18:25:05.693Z,5.10
2018-03-11T18:27:34.026Z,4.40
2018-03-11T18:30:02.380Z,6.40
2018-03-11T18:32:30.824Z,5.60
2018-03-11T18:34:59.147Z,6.70
2018-03-11T18:37:27.490Z,7.03
2018-03-11T18:39:55.809Z,5.50
2018-03-11T18:42:24.145Z,4.62
2018-03-11T18:44:52.462Z,5.10
2018-03-11T18:47:20.798Z,3.92
2018-03-11T18:49:49.151Z,4.00
2018-03-11T18:52:17.482Z,3.87
2018-03-11T18:54:45.793Z,4.00
2018-03-11T18:57:14.178Z,4.00
2018-03-11T18:59:42.564Z,4.10
2018-03-11T19:02:10.914Z,3.60
2018-03-11T19:04:39.230Z,3.58
2018-03-11T19:07:07.578Z,4.07
2018-03-11T19:09:35.893Z,4.23
2018-03-11T19:12:04.231Z,3.47
2018-03-11T19:14:32.541Z,3.90
2018-03-11T19:17:00.903Z,3.60
2018-03-11T19:19:29.234Z,3.97
2018-03-11T19:21:57.945Z,3.47
2018-03-11T19:24:26.285Z,3.50
2018-03-11T19:26:54.607Z,3.83
2018-03-11T19:29:22.956Z,3.70
2018-03-11T19:31:51.282Z,3.53
2018-03-11T19:34:19.624Z,3.53
2018-03-11T19:36:47.946Z,3.80
2018-03-11T19:39:16.278Z,3.07
2018-03-11T19:41:44.595Z,3.57
2018-03-11T19:44:12.926Z,4.17
2018-03-11T19:46:41.242Z,5.00
2018-03-11T19:49:09.582Z,4.28
2018-03-11T19:51:37.901Z,4.60
2018-03-11T19:54:06.256Z,5.20
2018-03-11T19:56:34.572Z,5.10
2018-03-11T19:59:02.910Z,4.90
2018-03-11T20:01:31.226Z,9.03
2018-03-11T20:03:59.579Z,8.90
2018-03-11T20:06:28.858Z,7.20
2018-03-11T20:08:57.197Z,7.33
2018-03-11T20:11:25.554Z,7.17
2018-03-11T20:13:53.885Z,7.57
2018-03-11T20:16:22.206Z,7.35
2018-03-11T20:18:50.551Z,6.70
2018-03-11T20:21:18.862Z,6.45
2018-03-11T20:23:47.207Z,7.80
2018-03-11T20:26:15.526Z,7.43
2018-03-11T20:28:43.866Z,6.40
2018-03-11T20:31:12.192Z,6.57
2018-03-11T20:33:40.534Z,8.10
2018-03-11T20:36:09.814Z,6.72
2018-03-11T20:38:38.158Z,6.70
2018-03-11T20:41:06.481Z,6.03
2018-03-11T20:43:34.826Z,5.22
2018-03-11T20:46:05.661Z,6.42
2018-03-11T20:48:33.999Z,5.50
2018-03-11T20:51:02.321Z,6.57
2018-03-11T20:53:30.649Z,5.30
2018-03-11T20:55:58.965Z,5.40
2018-03-11T20:58:27.310Z,5.70
2018-03-11T21:00:55.639Z,5.40
2018-03-11T21:03:23.973Z,5.33
2018-03-11T21:05:52.294Z,5.62
2018-03-11T21:08:20.643Z,6.70
2018-03-11T21:10:48.962Z,7.00
2018-03-11T21:13:17.273Z,5.20
2018-03-11T21:15:45.613Z,5.30
2018-03-11T21:18:13.940Z,4.95
2018-03-11T21:20:42.266Z,5.57
2018-03-11T21:23:10.578Z,5.62
2018-03-11T21:25:38.922Z,6.20
2018-03-11T21:28:07.234Z,5.07
2018-03-11T21:30:35.574Z,5.80
2018-03-11T21:33:03.886Z,6.37
2018-03-11T21:35:32.217Z,6.60
2018-03-11T21:38:00.532Z,6.70
2018-03-11T21:40:28.881Z,6.60
2018-03-11T21:42:57.198Z,6.60
2018-03-11T21:45:26.598Z,6.25
2018-03-11T21:47:54.918Z,6.57
2018-03-11T21:50:23.258Z,6.50
2018-03-11T21:52:51.582Z,7.18
2018-03-11T21:55:19.937Z,6.70
2018-03-11T21:57:48.262Z,9.20
2018-03-11T22:00:16.581Z,7.30
2018-03-11T22:02:44.921Z,8.67
2018-03-11T22:05:13.297Z,10.40
2018-03-11T22:07:41.642Z,9.30
2018-03-11T22:10:09.970Z,11.33
2018-03-11T22:12:38.314Z,9.43
2018-03-11T22:15:06.640Z,9.25
2018-03-11T22:17:34.983Z,10.87
2018-03-11T22:20:03.307Z,11.00
2018-03-11T22:22:31.661Z,11.80
2018-03-11T22:24:59.990Z,10.75
2018-03-11T22:27:28.342Z,12.10
2018-03-11T22:29:56.669Z,12.50
2018-03-11T22:32:25.019Z,11.77
2018-03-11T22:34:53.346Z,14.07
2018-03-11T22:37:21.710Z,13.40
2018-03-11T22:39:50.036Z,13.20
2018-03-11T22:42:18.362Z,13.70
2018-03-11T22:44:46.706Z,12.47
2018-03-11T22:47:15.030Z,11.70
2018-03-11T22:49:43.368Z,13.00
2018-03-11T22:52:11.693Z,11.03
2018-03-11T22:54:40.034Z,10.63
2018-03-11T22:57:08.358Z,11.47
2018-03-11T22:59:36.705Z,10.10
2018-03-11T23:02:05.025Z,10.10
2018-03-11T23:04:33.365Z,11.70
2018-03-11T23:07:01.685Z,11.00
2018-03-11T23:09:30.025Z,9.60
2018-03-11T23:11:58.370Z,9.80
2018-03-11T23:14:26.721Z,10.27
2018-03-11T23:16:55.041Z,8.63
2018-03-11T23:19:23.378Z,9.50
2018-03-11T23:21:51.697Z,9.93
2018-03-11T23:24:20.015Z,8.93
2018-03-11T23:26:48.349Z,8.67
2018-03-11T23:29:16.661Z,9.47
2018-03-11T23:31:45.002Z,9.27
2018-03-11T23:36:47.978Z,8.30
2018-03-11T23:39:16.290Z,9.30
2018-03-11T23:41:44.638Z,9.23
2018-03-11T23:44:12.945Z,9.30
2018-03-11T23:46:41.294Z,9.23
2018-03-11T23:49:09.622Z,9.13
2018-03-11T23:51:37.957Z,8.73
2018-03-11T23:54:06.278Z,9.50
2018-03-11T23:56:34.626Z,9.77
2018-03-11T23:59:02.954Z,8.90
